createdAt,value
2017-11-12T00:01:33.632Z,7.07
2017-11-12T00:04:03.462Z,6.07
2017-11-12T00:06:33.473Z,7.33
2017-11-12T00:09:03.245Z,8.40
2017-11-12T00:11:33.037Z,7.00
2017-11-12T00:14:02.609Z,7.37
2017-11-12T00:16:32.375Z,9.90
2017-11-12T00:19:02.371Z,5.33
2017-11-12T00:21:32.488Z,4.27
2017-11-12T00:24:02.202Z,3.83
2017-11-12T00:26:32.145Z,4.80
2017-11-12T00:29:01.705Z,3.40
2017-11-12T00:31:31.858Z,4.10
2017-11-12T00:34:01.652Z,4.87
2017-11-12T00:36:31.262Z,2.43
2017-11-12T00:39:00.891Z,3.60
2017-11-12T00:41:30.575Z,2.10
2017-11-12T00:44:00.428Z,2.73
2017-11-12T00:46:30.712Z,2.93
2017-11-12T00:49:00.849Z,7.10
2017-11-12T00:51:31.256Z,5.10
2017-11-12T00:54:00.840Z,4.53
2017-11-12T00:56:30.881Z,1.57
2017-11-12T00:59:01.007Z,3.80
2017-11-12T01:01:32.757Z,3.43
2017-11-12T01:04:02.844Z,6.53
2017-11-12T01:06:33.125Z,2.90
2017-11-12T01:09:02.714Z,4.33
2017-11-12T01:11:32.416Z,5.30
2017-11-12T01:14:02.241Z,6.80
2017-11-12T01:16:31.762Z,4.80
2017-11-12T01:19:01.545Z,3.23
2017-11-12T01:21:31.403Z,6.13
2017-11-12T01:24:01.993Z,3.17
2017-11-12T01:26:31.696Z,3.53
2017-11-12T01:29:01.337Z,7.23
2017-11-12T01:31:31.119Z,11.30
2017-11-12T01:34:00.664Z,4.60
2017-11-12T01:36:30.451Z,5.30
2017-11-12T01:39:00.949Z,7.90
2017-11-12T01:41:31.390Z,7.40
2017-11-12T01:44:01.017Z,4.60
2017-11-12T01:46:30.615Z,6.43
2017-11-12T01:49:00.801Z,2.60
2017-11-12T01:51:30.429Z,2.40
2017-11-12T01:54:00.721Z,2.73
2017-11-12T01:56:30.378Z,6.33
2017-11-12T01:58:59.988Z,9.17
2017-11-12T02:01:29.983Z,3.47
2017-11-12T02:03:59.671Z,7.97
2017-11-12T02:06:31.058Z,5.80
2017-11-12T02:09:00.873Z,4.80
2017-11-12T02:11:30.490Z,1.70
2017-11-12T02:14:01.019Z,7.00
2017-11-12T02:16:30.619Z,2.80
2017-11-12T02:19:00.872Z,4.10
2017-11-12T02:21:30.445Z,9.10
2017-11-12T02:24:00.341Z,3.70
2017-11-12T02:26:30.049Z,4.40
2017-11-12T02:28:59.686Z,7.87
2017-11-12T02:31:30.829Z,5.33
2017-11-12T02:34:01.151Z,9.27
2017-11-12T02:36:31.964Z,4.47
2017-11-12T02:39:01.559Z,3.93
2017-11-12T02:41:31.379Z,2.40
2017-11-12T02:44:01.212Z,2.40
2017-11-12T02:46:31.007Z,4.93
2017-11-12T02:49:00.631Z,2.40
2017-11-12T02:51:30.494Z,2.40
2017-11-12T02:54:00.064Z,4.30
2017-11-12T02:56:29.840Z,3.73
2017-11-12T02:58:59.474Z,2.60
2017-11-12T03:01:29.182Z,3.00
2017-11-12T03:03:58.890Z,4.27
2017-11-12T03:06:28.433Z,5.67
2017-11-12T03:08:58.221Z,6.03
2017-11-12T03:11:29.251Z,1.77
2017-11-12T03:13:58.777Z,4.03
2017-11-12T03:16:29.143Z,1.93
2017-11-12T03:18:59.011Z,3.40
2017-11-12T03:21:28.760Z,7.67
2017-11-12T03:23:58.611Z,8.27
2017-11-12T03:26:30.395Z,2.67
2017-11-12T03:29:00.898Z,2.43
2017-11-12T03:31:31.014Z,3.00
2017-11-12T03:34:01.775Z,4.27
2017-11-12T03:36:32.273Z,4.70
2017-11-12T03:39:02.785Z,3.47
2017-11-12T03:41:32.513Z,3.00
2017-11-12T03:44:03.952Z,1.93
2017-11-12T03:46:34.314Z,3.00
2017-11-12T03:49:03.872Z,5.63
2017-11-12T03:51:33.813Z,3.97
2017-11-12T03:54:03.716Z,2.07
2017-11-12T03:56:33.497Z,2.03
2017-11-12T03:59:03.169Z,4.23
2017-11-12T04:01:32.735Z,1.83
2017-11-12T04:04:02.839Z,3.23
2017-11-12T04:06:32.364Z,2.33
2017-11-12T04:09:02.068Z,2.93
2017-11-12T04:11:31.802Z,3.57
2017-11-12T04:14:02.226Z,1.33
2017-11-12T04:16:31.935Z,3.50
2017-11-12T04:19:01.642Z,6.40
2017-11-12T04:21:32.255Z,4.73
2017-11-12T04:24:02.093Z,1.50
2017-11-12T04:26:32.493Z,2.93
2017-11-12T04:29:02.193Z,1.10
2017-11-12T04:31:31.704Z,5.90
2017-11-12T04:34:01.338Z,2.30
2017-11-12T04:36:30.984Z,10.27
2017-11-12T04:39:00.633Z,5.07
2017-11-12T04:41:30.137Z,1.40
2017-11-12T04:43:59.967Z,1.67
2017-11-12T04:46:29.500Z,1.73
2017-11-12T04:48:59.272Z,2.87
2017-11-12T04:51:28.918Z,3.30
2017-11-12T04:53:59.297Z,2.90
2017-11-12T04:56:29.240Z,2.63
2017-11-12T04:58:58.835Z,0.90
2017-11-12T05:01:28.498Z,3.63
2017-11-12T05:03:58.021Z,1.33
2017-11-12T05:06:28.933Z,1.20
2017-11-12T05:08:58.697Z,2.60
2017-11-12T05:11:28.638Z,1.90
2017-11-12T05:13:58.897Z,2.40
2017-11-12T05:16:28.441Z,1.70
2017-11-12T05:18:58.777Z,1.27
2017-11-12T05:21:29.242Z,2.03
2017-11-12T05:23:59.497Z,1.63
2017-11-12T05:26:29.012Z,2.40
2017-11-12T05:28:58.629Z,1.30
2017-11-12T05:31:28.553Z,0.80
2017-11-12T05:33:58.086Z,1.87
2017-11-12T05:36:27.568Z,3.00
2017-11-12T05:38:57.878Z,0.80
2017-11-12T05:41:27.876Z,1.10
2017-11-12T05:43:58.199Z,1.13
2017-11-12T05:46:29.180Z,3.20
2017-11-12T05:48:59.030Z,1.73
2017-11-12T05:51:28.887Z,2.70
2017-11-12T05:53:59.140Z,1.80
2017-11-12T05:56:28.944Z,1.50
2017-11-12T05:58:59.395Z,3.50
2017-11-12T06:01:29.034Z,1.00
2017-11-12T06:03:58.529Z,1.00
2017-11-12T06:06:28.169Z,1.30
2017-11-12T06:08:57.892Z,2.30
2017-11-12T06:11:28.123Z,1.20
2017-11-12T06:13:58.693Z,1.03
2017-11-12T06:16:28.319Z,2.80
2017-11-12T06:18:57.941Z,1.33
2017-11-12T06:21:27.736Z,1.50
2017-11-12T06:23:57.647Z,3.10
2017-11-12T06:26:27.209Z,2.30
2017-11-12T06:28:56.864Z,1.83
2017-11-12T06:31:27.550Z,3.23
2017-11-12T06:33:57.421Z,3.20
2017-11-12T06:36:27.190Z,3.03
2017-11-12T06:38:58.004Z,2.30
2017-11-12T06:41:27.724Z,2.30
2017-11-12T06:43:57.217Z,2.53
2017-11-12T06:46:26.878Z,2.30
2017-11-12T06:48:56.671Z,1.00
2017-11-12T06:51:27.374Z,1.87
2017-11-12T06:53:56.904Z,2.97
2017-11-12T06:56:26.945Z,1.80
2017-11-12T06:58:56.774Z,0.90
2017-11-12T07:01:26.964Z,1.07
2017-11-12T07:03:56.665Z,3.03
2017-11-12T07:06:26.194Z,0.83
2017-11-12T07:08:56.517Z,1.20
2017-11-12T07:11:26.417Z,1.30
2017-11-12T07:13:55.977Z,1.30
2017-11-12T07:16:25.503Z,1.60
2017-11-12T07:18:55.130Z,1.60
2017-11-12T07:21:24.645Z,4.50
2017-11-12T07:23:54.136Z,3.20
2017-11-12T07:26:23.991Z,2.77
2017-11-12T07:28:55.221Z,1.10
2017-11-12T07:31:24.893Z,3.37
2017-11-12T07:33:54.561Z,1.03
2017-11-12T07:36:25.001Z,0.87
2017-11-12T07:38:54.603Z,1.03
2017-11-12T07:41:25.014Z,1.43
2017-11-12T07:43:55.438Z,2.93
2017-11-12T07:46:25.230Z,0.73
2017-11-12T07:48:55.282Z,1.50
2017-11-12T07:51:25.070Z,3.67
2017-11-12T07:53:55.550Z,1.27
2017-11-12T07:56:25.907Z,3.57
2017-11-12T07:58:55.592Z,1.30
2017-11-12T08:01:25.255Z,1.20
2017-11-12T08:03:54.817Z,0.70
2017-11-12T08:06:24.553Z,1.70
2017-11-12T08:08:54.086Z,1.20
2017-11-12T08:11:23.673Z,2.17
2017-11-12T08:13:53.393Z,0.90
2017-11-12T08:16:24.413Z,1.67
2017-11-12T08:18:54.721Z,2.90
2017-11-12T08:21:24.307Z,1.50
2017-11-12T08:23:54.240Z,2.87
2017-11-12T08:26:23.870Z,1.33
2017-11-12T08:28:53.685Z,2.13
2017-11-12T08:31:24.517Z,2.13
2017-11-12T08:33:54.229Z,2.00
2017-11-12T08:36:24.340Z,1.10
2017-11-12T08:38:54.017Z,1.20
2017-11-12T08:41:24.781Z,1.33
2017-11-12T08:43:56.306Z,1.20
2017-11-12T08:46:26.379Z,4.60
2017-11-12T08:48:56.687Z,2.83
2017-11-12T08:51:26.842Z,1.23
2017-11-12T08:53:57.136Z,1.60
2017-11-12T08:56:27.254Z,3.63
2017-11-12T08:58:57.668Z,4.30
2017-11-12T09:01:27.700Z,3.23
2017-11-12T09:03:57.546Z,2.33
2017-11-12T09:06:27.214Z,4.07
2017-11-12T09:08:56.753Z,1.70
2017-11-12T09:11:26.755Z,2.63
2017-11-12T09:13:57.355Z,1.63
2017-11-12T09:16:27.270Z,4.17
2017-11-12T09:18:57.928Z,3.73
2017-11-12T09:21:28.532Z,3.00
2017-11-12T09:23:59.206Z,3.30
2017-11-12T09:26:29.065Z,1.77
2017-11-12T09:28:58.704Z,1.30
2017-11-12T09:31:28.846Z,0.90
2017-11-12T09:33:58.712Z,9.50
2017-11-12T09:36:28.637Z,1.43
2017-11-12T09:38:59.244Z,2.60
2017-11-12T09:41:29.031Z,3.57
2017-11-12T09:43:58.712Z,2.37
2017-11-12T09:46:29.314Z,4.17
2017-11-12T09:48:58.870Z,2.80
2017-11-12T09:51:28.530Z,4.20
2017-11-12T09:53:58.227Z,3.30
2017-11-12T09:56:28.390Z,3.13
2017-11-12T09:58:58.282Z,2.27
2017-11-12T10:01:28.798Z,3.00
2017-11-12T10:03:58.636Z,3.00
2017-11-12T10:06:28.348Z,2.60
2017-11-12T10:08:59.281Z,7.30
2017-11-12T10:11:29.696Z,3.77
2017-11-12T10:13:59.397Z,2.10
2017-11-12T10:16:29.951Z,2.57
2017-11-12T10:18:59.508Z,3.00
2017-11-12T10:21:29.027Z,6.03
2017-11-12T10:23:58.651Z,2.43
2017-11-12T10:26:28.298Z,2.13
2017-11-12T10:28:57.988Z,6.97
2017-11-12T10:31:27.848Z,3.23
2017-11-12T10:33:57.402Z,8.83
2017-11-12T10:36:27.327Z,4.40
2017-11-12T10:38:57.093Z,3.10
2017-11-12T10:41:26.819Z,4.13
2017-11-12T10:43:56.449Z,8.13
2017-11-12T10:46:26.423Z,10.17
2017-11-12T10:48:56.239Z,3.73
2017-11-12T10:51:26.265Z,6.77
2017-11-12T10:53:57.011Z,4.87
2017-11-12T10:56:28.354Z,2.83
2017-11-12T10:59:00.548Z,4.00
2017-11-12T11:01:31.051Z,6.20
2017-11-12T11:04:00.771Z,8.70
2017-11-12T11:06:30.874Z,3.37
2017-11-12T11:09:00.793Z,4.73
2017-11-12T11:11:30.638Z,4.30
2017-11-12T11:14:01.033Z,2.83
2017-11-12T11:16:32.115Z,3.60
2017-11-12T11:19:02.424Z,10.30
2017-11-12T11:21:32.446Z,8.63
2017-11-12T11:24:02.249Z,5.00
2017-11-12T11:26:32.787Z,3.10
2017-11-12T11:29:03.307Z,2.60
2017-11-12T11:31:34.538Z,2.50
2017-11-12T11:34:04.152Z,1.87
2017-11-12T11:36:33.738Z,3.13
2017-11-12T11:39:05.090Z,5.80
2017-11-12T11:41:34.721Z,5.33
2017-11-12T11:44:04.627Z,1.90
2017-11-12T11:46:34.958Z,1.30
2017-11-12T11:49:04.691Z,3.13
2017-11-12T11:51:34.453Z,3.90
2017-11-12T11:54:04.293Z,4.63
2017-11-12T11:56:34.894Z,4.20
2017-11-12T11:59:04.809Z,1.93
2017-11-12T12:01:35.460Z,2.80
2017-11-12T12:04:05.182Z,4.17
2017-11-12T12:06:34.974Z,3.90
2017-11-12T12:09:04.878Z,3.47
2017-11-12T12:11:34.686Z,2.30
2017-11-12T12:14:04.705Z,4.03
2017-11-12T12:16:34.626Z,2.03
2017-11-12T12:19:04.534Z,5.40
2017-11-12T12:21:34.168Z,3.23
2017-11-12T12:24:04.728Z,1.70
2017-11-12T12:26:34.791Z,1.70
2017-11-12T12:29:04.597Z,1.77
2017-11-12T12:31:34.528Z,1.37
2017-11-12T12:34:04.464Z,1.60
2017-11-12T12:36:34.756Z,1.10
2017-11-12T12:39:04.726Z,3.20
2017-11-12T12:41:34.502Z,2.53
2017-11-12T12:44:04.225Z,3.33
2017-11-12T12:46:34.941Z,7.83
2017-11-12T12:49:05.559Z,2.33
2017-11-12T12:51:35.892Z,1.50
2017-11-12T12:54:07.153Z,1.10
2017-11-12T12:56:37.151Z,1.20
2017-11-12T12:59:06.980Z,1.47
2017-11-12T13:01:37.790Z,2.30
2017-11-12T13:04:07.530Z,2.40
2017-11-12T13:06:37.211Z,1.20
2017-11-12T13:09:07.241Z,1.20
2017-11-12T13:11:37.243Z,1.10
2017-11-12T13:14:07.694Z,1.10
2017-11-12T13:16:37.481Z,1.00
2017-11-12T13:19:07.531Z,3.93
2017-11-12T13:21:37.519Z,1.33
2017-11-12T13:24:07.434Z,1.00
2017-11-12T13:26:37.959Z,1.60
2017-11-12T13:29:07.876Z,1.63
2017-11-12T13:31:37.622Z,2.70
2017-11-12T13:34:07.740Z,5.47
2017-11-12T13:36:37.309Z,2.40
2017-11-12T13:39:07.056Z,1.20
2017-11-12T13:41:37.652Z,3.43
2017-11-12T13:44:07.486Z,1.10
2017-11-12T13:46:38.051Z,1.50
2017-11-12T13:49:08.214Z,2.30
2017-11-12T13:51:38.126Z,1.20
2017-11-12T13:54:08.041Z,1.40
2017-11-12T13:56:37.954Z,1.47
2017-11-12T13:59:07.869Z,1.87
2017-11-12T14:01:37.443Z,1.70
2017-11-12T14:04:07.209Z,2.03
2017-11-12T14:06:37.104Z,1.57
2017-11-12T14:09:07.036Z,1.27
2017-11-12T14:11:43.329Z,1.27
2017-11-12T14:14:13.088Z,1.87
2017-11-12T14:16:42.598Z,5.17
2017-11-12T14:19:12.455Z,1.63
2017-11-12T14:21:42.719Z,3.63
2017-11-12T14:24:13.101Z,1.00
2017-11-12T14:26:43.846Z,1.63
2017-11-12T14:29:13.517Z,1.00
2017-11-12T14:31:43.657Z,106.70
2017-11-12T14:34:13.643Z,181.50
2017-11-12T14:36:43.684Z,131.63
2017-11-12T14:39:13.552Z,65.53
2017-11-12T14:41:43.852Z,41.50
2017-11-12T14:44:13.706Z,43.83
2017-11-12T14:46:43.755Z,29.93
2017-11-12T14:49:14.350Z,27.83
2017-11-12T14:51:44.096Z,30.30
2017-11-12T14:54:14.255Z,25.00
2017-11-12T14:56:44.613Z,21.57
2017-11-12T14:59:14.417Z,21.90
2017-11-12T15:01:43.969Z,15.47
2017-11-12T15:04:13.882Z,16.53
2017-11-12T15:06:43.551Z,15.23
2017-11-12T15:09:13.664Z,17.33
2017-11-12T15:11:44.665Z,17.43
2017-11-12T15:14:14.516Z,14.27
2017-11-12T15:16:44.358Z,13.50
2017-11-12T15:19:15.170Z,12.67
2017-11-12T15:21:45.213Z,9.77
2017-11-12T15:24:15.944Z,12.40
2017-11-12T15:26:46.755Z,14.70
2017-11-12T15:29:16.667Z,7.73
2017-11-12T15:31:46.613Z,7.60
2017-11-12T15:34:16.448Z,8.67
2017-11-12T15:36:46.490Z,7.33
2017-11-12T15:39:17.144Z,9.10
2017-11-12T15:41:47.262Z,10.50
2017-11-12T15:44:17.314Z,8.73
2017-11-12T15:46:48.224Z,8.80
2017-11-12T15:49:19.391Z,8.63
2017-11-12T15:51:50.439Z,7.13
2017-11-12T15:54:21.374Z,7.13
2017-11-12T15:56:51.464Z,9.80
2017-11-12T15:59:22.754Z,5.77
2017-11-12T16:01:52.727Z,8.83
2017-11-12T16:04:22.635Z,6.03
2017-11-12T16:06:52.492Z,5.07
2017-11-12T16:09:22.912Z,7.10
2017-11-12T16:11:52.794Z,9.30
2017-11-12T16:14:24.693Z,8.43
2017-11-12T16:16:54.671Z,6.67
2017-11-12T16:19:26.071Z,6.00
2017-11-12T16:21:56.133Z,7.90
2017-11-12T16:24:26.004Z,6.73
2017-11-12T16:26:56.781Z,5.77
2017-11-12T16:29:26.807Z,8.60
2017-11-12T16:31:56.991Z,5.87
2017-11-12T16:34:27.346Z,5.67
2017-11-12T16:36:57.659Z,6.17
2017-11-12T16:39:27.994Z,4.80
2017-11-12T16:41:57.846Z,5.37
2017-11-12T16:44:28.579Z,4.60
2017-11-12T16:46:58.682Z,3.87
2017-11-12T16:49:29.521Z,5.73
2017-11-12T16:51:59.407Z,4.53
2017-11-12T16:54:29.240Z,3.83
2017-11-12T16:57:00.431Z,4.83
2017-11-12T16:59:30.247Z,4.27
2017-11-12T17:01:59.883Z,3.57
2017-11-12T17:04:29.591Z,3.87
2017-11-12T17:07:00.939Z,6.63
2017-11-12T17:09:30.787Z,5.83
2017-11-12T17:12:00.567Z,5.67
2017-11-12T17:14:30.670Z,4.90
2017-11-12T17:17:01.528Z,4.60
2017-11-12T17:19:31.329Z,5.00
2017-11-12T17:22:01.758Z,6.10
2017-11-12T17:24:31.569Z,4.40
2017-11-12T17:27:01.435Z,3.57
2017-11-12T17:29:31.193Z,6.60
2017-11-12T17:32:01.925Z,4.00
2017-11-12T17:34:31.758Z,3.90
2017-11-12T17:37:02.370Z,5.20
2017-11-12T17:39:32.019Z,3.83
2017-11-12T17:42:01.766Z,3.03
2017-11-12T17:44:32.328Z,4.17
2017-11-12T17:47:02.239Z,3.57
2017-11-12T17:49:32.109Z,2.80
2017-11-12T17:52:02.097Z,4.07
2017-11-12T17:54:31.688Z,4.00
2017-11-12T17:57:02.300Z,3.93
2017-11-12T17:59:33.034Z,3.50
2017-11-12T18:02:04.996Z,3.83
2017-11-12T18:04:34.927Z,3.67
2017-11-12T18:07:04.959Z,4.10
2017-11-12T18:09:35.712Z,4.20
2017-11-12T18:12:05.677Z,4.00
2017-11-12T18:14:38.064Z,3.70
2017-11-12T18:17:10.442Z,4.00
2017-11-12T18:19:43.096Z,4.07
2017-11-12T18:22:14.867Z,3.70
2017-11-12T18:24:46.531Z,3.93
2017-11-12T18:27:16.644Z,5.93
2017-11-12T18:29:47.622Z,5.33
2017-11-12T18:32:19.550Z,6.80
2017-11-12T18:34:51.387Z,8.20
2017-11-12T18:37:22.726Z,5.87
2017-11-12T18:39:53.399Z,6.53
2017-11-12T18:42:23.876Z,8.63
2017-11-12T18:44:55.519Z,10.10
2017-11-12T18:47:27.429Z,8.93
2017-11-12T18:49:57.960Z,9.20
2017-11-12T18:52:28.733Z,12.63
2017-11-12T18:54:59.352Z,13.33
2017-11-12T18:57:30.050Z,16.03
2017-11-12T19:00:01.081Z,11.37
2017-11-12T19:02:37.151Z,8.13
2017-11-12T19:05:08.732Z,13.73
2017-11-12T19:07:41.497Z,9.80
2017-11-12T19:10:12.486Z,12.00
2017-11-12T19:12:43.088Z,11.40
2017-11-12T19:15:13.470Z,11.80
2017-11-12T19:17:46.013Z,6.47
2017-11-12T19:20:17.251Z,9.33
2017-11-12T19:22:48.158Z,8.70
2017-11-12T19:25:18.748Z,8.03
2017-11-12T19:27:50.009Z,9.23
2017-11-12T19:30:21.997Z,6.93
2017-11-12T19:32:53.692Z,9.90
2017-11-12T19:35:25.307Z,8.70
2017-11-12T19:37:55.670Z,11.07
2017-11-12T19:40:28.227Z,7.50
2017-11-12T19:42:59.672Z,8.83
2017-11-12T19:45:31.876Z,10.10
2017-11-12T19:48:04.792Z,10.80
2017-11-12T19:50:36.023Z,9.27
2017-11-12T19:53:07.809Z,7.03
2017-11-12T19:55:38.698Z,10.10
2017-11-12T19:58:10.079Z,10.40
2017-11-12T20:00:40.628Z,7.37
2017-11-12T20:03:11.375Z,8.13
2017-11-12T20:05:42.382Z,6.17
2017-11-12T20:08:13.016Z,7.00
2017-11-12T20:10:44.976Z,7.10
2017-11-12T20:13:17.707Z,6.40
2017-11-12T20:15:47.971Z,7.17
2017-11-12T20:18:19.333Z,7.30
2017-11-12T20:20:49.848Z,7.47
2017-11-12T20:23:21.277Z,6.47
2017-11-12T20:25:54.453Z,7.53
2017-11-12T20:28:24.991Z,8.67
2017-11-12T20:30:56.600Z,6.27
2017-11-12T20:33:27.211Z,6.00
2017-11-12T20:36:02.704Z,6.60
2017-11-12T20:38:33.588Z,5.83
2017-11-12T20:41:05.080Z,6.60
2017-11-12T20:43:35.719Z,6.20
2017-11-12T20:46:06.722Z,7.63
2017-11-12T20:48:37.368Z,6.43
2017-11-12T20:51:07.780Z,5.60
2017-11-12T20:53:38.979Z,5.40
2017-11-12T20:56:09.500Z,5.50
2017-11-12T20:58:40.339Z,5.10
2017-11-12T21:01:11.372Z,5.90
2017-11-12T21:03:44.396Z,5.73
2017-11-12T21:06:15.593Z,4.80
2017-11-12T21:08:46.258Z,5.37
2017-11-12T21:11:17.488Z,5.57
2017-11-12T21:13:48.876Z,4.80
2017-11-12T21:16:19.480Z,5.43
